sensor_id;sensor_type;location;lat;lon;timestamp;P1;durP1;ratioP1;P2;durP2;ratioP2
48651;SDS011;34442;52.362;-1.302;2023-02-07T00:00:40;4.13;;;1.83;;
48651;SDS011;34442;52.362;-1.302;2023-02-07T00:03:05;4.47;;;1.98;;
48651;SDS011;34442;52.362;-1.302;2023-02-07T00:05:31;4.85;;;2.13;;
48651;SDS011;34442;52.362;-1.302;2023-02-07T00:07:56;8.38;;;3.05;;
48651;SDS011;34442;52.362;-1.302;2023-02-07T00:10:22;4.25;;;1.83;;
48651;SDS011;34442;52.362;-1.302;2023-02-07T00:12:47;4.45;;;2.08;;
48651;SDS011;34442;52.362;-1.302;2023-02-07T00:15:14;4.20;;;2.20;;
48651;SDS011;34442;52.362;-1.302;2023-02-07T00:17:39;5.35;;;2.05;;
48651;SDS011;34442;52.362;-1.302;2023-02-07T00:20:05;3.97;;;1.85;;
48651;SDS011;34442;52.362;-1.302;2023-02-07T00:22:31;4.80;;;2.05;;
48651;SDS011;34442;52.362;-1.302;2023-02-07T00:24:56;4.60;;;1.90;;
48651;SDS011;34442;52.362;-1.302;2023-02-07T00:27:22;3.90;;;2.13;;
48651;SDS011;34442;52.362;-1.302;2023-02-07T00:29:48;5.88;;;2.35;;
48651;SDS011;34442;52.362;-1.302;2023-02-07T00:32:13;4.38;;;2.22;;
48651;SDS011;34442;52.362;-1.302;2023-02-07T00:34:39;4.90;;;1.88;;
48651;SDS011;34442;52.362;-1.302;2023-02-07T00:37:05;3.17;;;1.83;;
48651;SDS011;34442;52.362;-1.302;2023-02-07T00:39:31;4.72;;;2.00;;
48651;SDS011;34442;52.362;-1.302;2023-02-07T00:41:57;5.07;;;1.92;;
48651;SDS011;34442;52.362;-1.302;2023-02-07T00:44:22;5.00;;;2.10;;
48651;SDS011;34442;52.362;-1.302;2023-02-07T00:46:47;4.72;;;2.35;;
48651;SDS011;34442;52.362;-1.302;2023-02-07T00:49:13;3.30;;;1.90;;
48651;SDS011;34442;52.362;-1.302;2023-02-07T00:51:38;2.97;;;1.77;;
48651;SDS011;34442;52.362;-1.302;2023-02-07T00:54:04;4.38;;;1.90;;
48651;SDS011;34442;52.362;-1.302;2023-02-07T00:56:30;3.20;;;1.75;;
48651;SDS011;34442;52.362;-1.302;2023-02-07T00:58:56;4.18;;;1.70;;
48651;SDS011;34442;52.362;-1.302;2023-02-07T01:01:23;4.72;;;1.85;;
48651;SDS011;34442;52.362;-1.302;2023-02-07T01:03:51;3.30;;;1.60;;
48651;SDS011;34442;52.362;-1.302;2023-02-07T01:06:17;2.95;;;1.50;;
48651;SDS011;34442;52.362;-1.302;2023-02-07T01:08:42;4.07;;;1.50;;
48651;SDS011;34442;52.362;-1.302;2023-02-07T01:11:09;2.58;;;1.40;;
48651;SDS011;34442;52.362;-1.302;2023-02-07T01:13:36;3.05;;;1.73;;
48651;SDS011;34442;52.362;-1.302;2023-02-07T01:16:02;2.67;;;1.48;;
48651;SDS011;34442;52.362;-1.302;2023-02-07T01:18:28;2.72;;;1.48;;
48651;SDS011;34442;52.362;-1.302;2023-02-07T01:20:54;4.47;;;1.50;;
48651;SDS011;34442;52.362;-1.302;2023-02-07T01:23:19;2.95;;;1.30;;
48651;SDS011;34442;52.362;-1.302;2023-02-07T01:25:45;2.83;;;1.38;;
48651;SDS011;34442;52.362;-1.302;2023-02-07T01:28:10;2.72;;;1.42;;
48651;SDS011;34442;52.362;-1.302;2023-02-07T01:30:38;2.58;;;1.63;;
48651;SDS011;34442;52.362;-1.302;2023-02-07T01:33:04;3.28;;;1.48;;
48651;SDS011;34442;52.362;-1.302;2023-02-07T01:35:29;2.33;;;1.27;;
48651;SDS011;34442;52.362;-1.302;2023-02-07T01:37:55;2.85;;;1.40;;
48651;SDS011;34442;52.362;-1.302;2023-02-07T01:40:23;2.72;;;1.30;;
48651;SDS011;34442;52.362;-1.302;2023-02-07T01:42:49;3.30;;;1.38;;
48651;SDS011;34442;52.362;-1.302;2023-02-07T01:48:01;2.63;;;1.20;;
48651;SDS011;34442;52.362;-1.302;2023-02-07T01:50:31;1.90;;;1.17;;
48651;SDS011;34442;52.362;-1.302;2023-02-07T01:52:57;2.67;;;1.35;;
48651;SDS011;34442;52.362;-1.302;2023-02-07T01:55:27;2.60;;;1.48;;
48651;SDS011;34442;52.362;-1.302;2023-02-07T01:57:55;2.28;;;1.30;;
48651;SDS011;34442;52.362;-1.302;2023-02-07T02:00:20;2.72;;;1.30;;
48651;SDS011;34442;52.362;-1.302;2023-02-07T02:02:47;2.55;;;1.45;;
48651;SDS011;34442;52.362;-1.302;2023-02-07T02:05:13;3.47;;;1.55;;
48651;SDS011;34442;52.362;-1.302;2023-02-07T02:07:40;3.17;;;1.42;;
48651;SDS011;34442;52.362;-1.302;2023-02-07T02:10:11;4.20;;;1.75;;
48651;SDS011;34442;52.362;-1.302;2023-02-07T02:18:03;2.67;;;1.48;;
48651;SDS011;34442;52.362;-1.302;2023-02-07T02:31:17;2.20;;;1.30;;
48651;SDS011;34442;52.362;-1.302;2023-02-07T02:34:07;4.32;;;1.50;;
48651;SDS011;34442;52.362;-1.302;2023-02-07T02:39:31;2.63;;;1.20;;
48651;SDS011;34442;52.362;-1.302;2023-02-07T02:47:23;2.88;;;1.40;;
48651;SDS011;34442;52.362;-1.302;2023-02-07T02:49:51;4.25;;;1.63;;
48651;SDS011;34442;52.362;-1.302;2023-02-07T02:52:17;3.85;;;1.50;;
48651;SDS011;34442;52.362;-1.302;2023-02-07T02:54:42;4.43;;;1.83;;
48651;SDS011;34442;52.362;-1.302;2023-02-07T03:00:41;4.10;;;1.80;;
48651;SDS011;34442;52.362;-1.302;2023-02-07T03:08:38;3.20;;;1.40;;
48651;SDS011;34442;52.362;-1.302;2023-02-07T03:11:09;5.45;;;1.70;;
48651;SDS011;34442;52.362;-1.302;2023-02-07T03:16:49;2.65;;;1.35;;
48651;SDS011;34442;52.362;-1.302;2023-02-07T03:19:26;3.97;;;1.50;;
48651;SDS011;34442;52.362;-1.302;2023-02-07T03:22:07;3.60;;;1.70;;
48651;SDS011;34442;52.362;-1.302;2023-02-07T03:24:38;3.23;;;1.70;;
48651;SDS011;34442;52.362;-1.302;2023-02-07T03:27:08;2.88;;;1.70;;
48651;SDS011;34442;52.362;-1.302;2023-02-07T03:29:37;2.22;;;1.48;;
48651;SDS011;34442;52.362;-1.302;2023-02-07T03:32:04;2.80;;;1.60;;
48651;SDS011;34442;52.362;-1.302;2023-02-07T03:34:34;2.85;;;1.60;;
48651;SDS011;34442;52.362;-1.302;2023-02-07T03:37:07;3.83;;;1.70;;
48651;SDS011;34442;52.362;-1.302;2023-02-07T03:39:40;3.38;;;1.70;;
48651;SDS011;34442;52.362;-1.302;2023-02-07T03:42:07;4.75;;;1.60;;
48651;SDS011;34442;52.362;-1.302;2023-02-07T03:44:42;6.28;;;1.90;;
48651;SDS011;34442;52.362;-1.302;2023-02-07T03:47:10;3.63;;;1.60;;
48651;SDS011;34442;52.362;-1.302;2023-02-07T03:49:36;4.70;;;1.67;;
48651;SDS011;34442;52.362;-1.302;2023-02-07T03:52:01;3.05;;;1.50;;
48651;SDS011;34442;52.362;-1.302;2023-02-07T03:54:26;3.47;;;1.60;;
48651;SDS011;34442;52.362;-1.302;2023-02-07T03:56:52;4.30;;;1.88;;
48651;SDS011;34442;52.362;-1.302;2023-02-07T03:59:17;2.38;;;1.60;;
48651;SDS011;34442;52.362;-1.302;2023-02-07T04:01:42;4.68;;;1.50;;
48651;SDS011;34442;52.362;-1.302;2023-02-07T04:04:09;3.72;;;1.73;;
48651;SDS011;34442;52.362;-1.302;2023-02-07T04:06:35;3.58;;;1.40;;
48651;SDS011;34442;52.362;-1.302;2023-02-07T04:09:01;2.58;;;1.63;;
48651;SDS011;34442;52.362;-1.302;2023-02-07T04:11:26;2.92;;;1.67;;
48651;SDS011;34442;52.362;-1.302;2023-02-07T04:13:52;3.53;;;1.92;;
48651;SDS011;34442;52.362;-1.302;2023-02-07T04:16:17;4.43;;;1.73;;
48651;SDS011;34442;52.362;-1.302;2023-02-07T04:18:43;4.15;;;1.90;;
48651;SDS011;34442;52.362;-1.302;2023-02-07T04:21:08;3.17;;;1.73;;
48651;SDS011;34442;52.362;-1.302;2023-02-07T04:23:34;5.50;;;1.75;;
48651;SDS011;34442;52.362;-1.302;2023-02-07T04:26:00;3.45;;;1.75;;
48651;SDS011;34442;52.362;-1.302;2023-02-07T04:28:26;3.20;;;1.52;;
48651;SDS011;34442;52.362;-1.302;2023-02-07T04:30:52;3.40;;;1.50;;
48651;SDS011;34442;52.362;-1.302;2023-02-07T04:33:18;2.53;;;1.48;;
48651;SDS011;34442;52.362;-1.302;2023-02-07T04:35:45;3.60;;;1.65;;
48651;SDS011;34442;52.362;-1.302;2023-02-07T04:38:17;2.75;;;1.50;;
48651;SDS011;34442;52.362;-1.302;2023-02-07T04:40:43;3.60;;;1.65;;
48651;SDS011;34442;52.362;-1.302;2023-02-07T04:43:08;6.28;;;2.20;;
48651;SDS011;34442;52.362;-1.302;2023-02-07T04:45:33;3.33;;;1.80;;
48651;SDS011;34442;52.362;-1.302;2023-02-07T04:47:59;3.80;;;2.03;;
48651;SDS011;34442;52.362;-1.302;2023-02-07T04:50:24;3.60;;;2.03;;
48651;SDS011;34442;52.362;-1.302;2023-02-07T04:52:50;4.35;;;2.03;;
48651;SDS011;34442;52.362;-1.302;2023-02-07T04:55:15;4.75;;;2.03;;
48651;SDS011;34442;52.362;-1.302;2023-02-07T04:57:40;3.30;;;1.80;;
48651;SDS011;34442;52.362;-1.302;2023-02-07T05:00:06;4.05;;;1.88;;
48651;SDS011;34442;52.362;-1.302;2023-02-07T05:02:32;3.45;;;1.55;;
48651;SDS011;34442;52.362;-1.302;2023-02-07T05:04:57;3.20;;;2.05;;
48651;SDS011;34442;52.362;-1.302;2023-02-07T05:07:22;3.70;;;1.90;;
48651;SDS011;34442;52.362;-1.302;2023-02-07T05:09:48;3.70;;;1.75;;
48651;SDS011;34442;52.362;-1.302;2023-02-07T05:12:13;3.80;;;1.85;;
48651;SDS011;34442;52.362;-1.302;2023-02-07T05:14:39;3.58;;;1.65;;
48651;SDS011;34442;52.362;-1.302;2023-02-07T05:17:04;3.88;;;1.73;;
48651;SDS011;34442;52.362;-1.302;2023-02-07T05:19:29;3.20;;;1.80;;
48651;SDS011;34442;52.362;-1.302;2023-02-07T05:21:55;2.83;;;1.60;;
48651;SDS011;34442;52.362;-1.302;2023-02-07T05:24:20;3.90;;;1.90;;
48651;SDS011;34442;52.362;-1.302;2023-02-07T05:26:45;4.05;;;2.28;;
48651;SDS011;34442;52.362;-1.302;2023-02-07T05:29:11;7.55;;;2.63;;
48651;SDS011;34442;52.362;-1.302;2023-02-07T05:31:36;6.50;;;2.33;;
48651;SDS011;34442;52.362;-1.302;2023-02-07T05:34:20;4.28;;;2.03;;
48651;SDS011;34442;52.362;-1.302;2023-02-07T05:36:47;4.78;;;1.98;;
48651;SDS011;34442;52.362;-1.302;2023-02-07T05:39:13;4.10;;;2.05;;
48651;SDS011;34442;52.362;-1.302;2023-02-07T05:41:38;4.07;;;2.15;;
48651;SDS011;34442;52.362;-1.302;2023-02-07T05:44:03;4.28;;;1.63;;
48651;SDS011;34442;52.362;-1.302;2023-02-07T05:46:29;4.78;;;2.15;;
48651;SDS011;34442;52.362;-1.302;2023-02-07T05:48:54;4.65;;;2.03;;
48651;SDS011;34442;52.362;-1.302;2023-02-07T05:51:20;4.28;;;2.05;;
48651;SDS011;34442;52.362;-1.302;2023-02-07T05:53:45;6.53;;;2.25;;
48651;SDS011;34442;52.362;-1.302;2023-02-07T05:56:10;4.20;;;1.95;;
48651;SDS011;34442;52.362;-1.302;2023-02-07T05:58:36;6.07;;;2.17;;
48651;SDS011;34442;52.362;-1.302;2023-02-07T06:01:01;4.97;;;2.38;;
48651;SDS011;34442;52.362;-1.302;2023-02-07T06:03:26;3.42;;;1.80;;
48651;SDS011;34442;52.362;-1.302;2023-02-07T06:05:52;3.78;;;2.00;;
48651;SDS011;34442;52.362;-1.302;2023-02-07T06:08:17;3.83;;;2.00;;
48651;SDS011;34442;52.362;-1.302;2023-02-07T06:10:43;4.72;;;1.95;;
48651;SDS011;34442;52.362;-1.302;2023-02-07T06:13:08;3.20;;;1.90;;
48651;SDS011;34442;52.362;-1.302;2023-02-07T06:15:34;5.05;;;2.03;;
48651;SDS011;34442;52.362;-1.302;2023-02-07T06:17:59;4.63;;;2.30;;
48651;SDS011;34442;52.362;-1.302;2023-02-07T06:20:24;3.25;;;2.03;;
48651;SDS011;34442;52.362;-1.302;2023-02-07T06:22:50;4.50;;;2.25;;
48651;SDS011;34442;52.362;-1.302;2023-02-07T06:25:16;3.90;;;1.92;;
48651;SDS011;34442;52.362;-1.302;2023-02-07T06:27:42;4.65;;;2.20;;
48651;SDS011;34442;52.362;-1.302;2023-02-07T06:30:08;5.00;;;2.42;;
48651;SDS011;34442;52.362;-1.302;2023-02-07T06:32:34;3.85;;;2.10;;
48651;SDS011;34442;52.362;-1.302;2023-02-07T06:35:00;4.38;;;2.00;;
48651;SDS011;34442;52.362;-1.302;2023-02-07T06:37:25;5.05;;;2.03;;
48651;SDS011;34442;52.362;-1.302;2023-02-07T06:39:51;6.28;;;2.63;;
48651;SDS011;34442;52.362;-1.302;2023-02-07T06:42:16;5.43;;;2.33;;
48651;SDS011;34442;52.362;-1.302;2023-02-07T06:44:41;3.40;;;2.15;;
48651;SDS011;34442;52.362;-1.302;2023-02-07T06:47:09;5.38;;;2.38;;
48651;SDS011;34442;52.362;-1.302;2023-02-07T06:49:35;6.25;;;2.63;;
48651;SDS011;34442;52.362;-1.302;2023-02-07T06:52:00;3.80;;;2.00;;
48651;SDS011;34442;52.362;-1.302;2023-02-07T06:54:25;3.85;;;2.00;;
48651;SDS011;34442;52.362;-1.302;2023-02-07T06:56:51;3.53;;;1.90;;
48651;SDS011;34442;52.362;-1.302;2023-02-07T06:59:16;5.10;;;2.63;;
48651;SDS011;34442;52.362;-1.302;2023-02-07T07:01:42;4.57;;;2.05;;
48651;SDS011;34442;52.362;-1.302;2023-02-07T07:04:07;3.97;;;2.10;;
48651;SDS011;34442;52.362;-1.302;2023-02-07T07:06:33;3.40;;;2.08;;
48651;SDS011;34442;52.362;-1.302;2023-02-07T07:08:58;3.90;;;2.28;;
48651;SDS011;34442;52.362;-1.302;2023-02-07T07:11:24;5.20;;;2.53;;
48651;SDS011;34442;52.362;-1.302;2023-02-07T07:13:52;7.20;;;2.80;;
48651;SDS011;34442;52.362;-1.302;2023-02-07T07:16:18;4.32;;;2.38;;
48651;SDS011;34442;52.362;-1.302;2023-02-07T07:18:43;5.38;;;2.22;;
48651;SDS011;34442;52.362;-1.302;2023-02-07T07:21:09;4.07;;;2.30;;
48651;SDS011;34442;52.362;-1.302;2023-02-07T07:23:34;5.70;;;2.83;;
48651;SDS011;34442;52.362;-1.302;2023-02-07T07:26:00;4.07;;;1.90;;
48651;SDS011;34442;52.362;-1.302;2023-02-07T07:28:26;5.53;;;2.53;;
48651;SDS011;34442;52.362;-1.302;2023-02-07T07:30:51;5.30;;;2.22;;
48651;SDS011;34442;52.362;-1.302;2023-02-07T07:33:16;4.20;;;2.00;;
48651;SDS011;34442;52.362;-1.302;2023-02-07T07:35:42;3.92;;;2.00;;
48651;SDS011;34442;52.362;-1.302;2023-02-07T07:38:07;4.25;;;2.28;;
48651;SDS011;34442;52.362;-1.302;2023-02-07T07:40:33;4.47;;;2.40;;
48651;SDS011;34442;52.362;-1.302;2023-02-07T07:42:58;3.97;;;2.20;;
48651;SDS011;34442;52.362;-1.302;2023-02-07T07:45:23;6.05;;;2.88;;
48651;SDS011;34442;52.362;-1.302;2023-02-07T07:47:50;4.80;;;2.72;;
48651;SDS011;34442;52.362;-1.302;2023-02-07T07:50:15;5.30;;;3.03;;
48651;SDS011;34442;52.362;-1.302;2023-02-07T07:52:41;11.93;;;3.45;;
48651;SDS011;34442;52.362;-1.302;2023-02-07T07:55:07;4.68;;;2.50;;
48651;SDS011;34442;52.362;-1.302;2023-02-07T07:57:33;5.75;;;2.85;;
48651;SDS011;34442;52.362;-1.302;2023-02-07T07:59:59;7.20;;;2.47;;
48651;SDS011;34442;52.362;-1.302;2023-02-07T08:02:24;4.85;;;2.65;;
48651;SDS011;34442;52.362;-1.302;2023-02-07T08:04:50;6.07;;;2.55;;
48651;SDS011;34442;52.362;-1.302;2023-02-07T08:07:15;5.40;;;2.80;;
48651;SDS011;34442;52.362;-1.302;2023-02-07T08:09:41;5.82;;;2.30;;
48651;SDS011;34442;52.362;-1.302;2023-02-07T08:12:06;5.45;;;2.72;;
48651;SDS011;34442;52.362;-1.302;2023-02-07T08:14:32;6.03;;;2.55;;
48651;SDS011;34442;52.362;-1.302;2023-02-07T08:16:57;6.15;;;2.35;;
48651;SDS011;34442;52.362;-1.302;2023-02-07T08:19:23;5.85;;;2.38;;
48651;SDS011;34442;52.362;-1.302;2023-02-07T08:21:48;4.35;;;2.10;;
48651;SDS011;34442;52.362;-1.302;2023-02-07T08:24:14;3.25;;;2.13;;
48651;SDS011;34442;52.362;-1.302;2023-02-07T08:26:40;5.72;;;2.38;;
48651;SDS011;34442;52.362;-1.302;2023-02-07T08:29:06;5.60;;;2.95;;
48651;SDS011;34442;52.362;-1.302;2023-02-07T08:31:31;5.30;;;2.72;;
48651;SDS011;34442;52.362;-1.302;2023-02-07T08:33:57;5.03;;;2.38;;
48651;SDS011;34442;52.362;-1.302;2023-02-07T08:36:22;4.65;;;2.40;;
48651;SDS011;34442;52.362;-1.302;2023-02-07T08:38:49;5.45;;;2.63;;
48651;SDS011;34442;52.362;-1.302;2023-02-07T08:41:14;5.35;;;2.53;;
48651;SDS011;34442;52.362;-1.302;2023-02-07T08:43:40;6.07;;;2.63;;
48651;SDS011;34442;52.362;-1.302;2023-02-07T08:46:06;4.30;;;2.28;;
48651;SDS011;34442;52.362;-1.302;2023-02-07T08:48:31;5.57;;;2.70;;
48651;SDS011;34442;52.362;-1.302;2023-02-07T08:50:57;4.65;;;2.35;;
48651;SDS011;34442;52.362;-1.302;2023-02-07T08:53:22;6.32;;;2.67;;
48651;SDS011;34442;52.362;-1.302;2023-02-07T08:55:47;8.05;;;3.33;;
48651;SDS011;34442;52.362;-1.302;2023-02-07T08:58:13;6.57;;;3.45;;
48651;SDS011;34442;52.362;-1.302;2023-02-07T09:00:38;4.57;;;2.60;;
48651;SDS011;34442;52.362;-1.302;2023-02-07T09:03:04;5.07;;;2.70;;
48651;SDS011;34442;52.362;-1.302;2023-02-07T09:05:30;4.40;;;2.17;;
48651;SDS011;34442;52.362;-1.302;2023-02-07T09:07:58;5.35;;;2.80;;
48651;SDS011;34442;52.362;-1.302;2023-02-07T09:10:24;5.45;;;2.63;;
48651;SDS011;34442;52.362;-1.302;2023-02-07T09:12:49;4.65;;;2.40;;
48651;SDS011;34442;52.362;-1.302;2023-02-07T09:15:15;6.63;;;2.55;;
48651;SDS011;34442;52.362;-1.302;2023-02-07T09:17:40;6.10;;;2.67;;
48651;SDS011;34442;52.362;-1.302;2023-02-07T09:20:06;4.13;;;2.08;;
48651;SDS011;34442;52.362;-1.302;2023-02-07T09:22:31;4.65;;;2.40;;
48651;SDS011;34442;52.362;-1.302;2023-02-07T09:25:17;5.80;;;2.30;;
48651;SDS011;34442;52.362;-1.302;2023-02-07T09:27:42;6.13;;;2.22;;
48651;SDS011;34442;52.362;-1.302;2023-02-07T09:30:07;3.75;;;2.17;;
48651;SDS011;34442;52.362;-1.302;2023-02-07T09:32:33;6.90;;;3.30;;
48651;SDS011;34442;52.362;-1.302;2023-02-07T09:34:58;6.30;;;2.97;;
48651;SDS011;34442;52.362;-1.302;2023-02-07T09:37:24;7.65;;;2.90;;
48651;SDS011;34442;52.362;-1.302;2023-02-07T09:39:49;5.00;;;2.50;;
48651;SDS011;34442;52.362;-1.302;2023-02-07T09:42:19;5.28;;;2.50;;
48651;SDS011;34442;52.362;-1.302;2023-02-07T09:44:58;5.72;;;3.22;;
48651;SDS011;34442;52.362;-1.302;2023-02-07T09:47:28;6.53;;;2.80;;
48651;SDS011;34442;52.362;-1.302;2023-02-07T09:50:03;4.20;;;2.10;;
48651;SDS011;34442;52.362;-1.302;2023-02-07T09:55:00;5.28;;;2.50;;
48651;SDS011;34442;52.362;-1.302;2023-02-07T09:57:31;4.38;;;2.33;;
48651;SDS011;34442;52.362;-1.302;2023-02-07T10:02:44;3.53;;;2.00;;
48651;SDS011;34442;52.362;-1.302;2023-02-07T10:05:17;5.95;;;2.40;;
48651;SDS011;34442;52.362;-1.302;2023-02-07T10:07:46;6.13;;;3.00;;
48651;SDS011;34442;52.362;-1.302;2023-02-07T10:10:23;5.20;;;2.80;;
48651;SDS011;34442;52.362;-1.302;2023-02-07T10:18:23;4.63;;;2.55;;
48651;SDS011;34442;52.362;-1.302;2023-02-07T10:21:00;5.88;;;3.08;;
48651;SDS011;34442;52.362;-1.302;2023-02-07T10:23:47;6.90;;;2.90;;
48651;SDS011;34442;52.362;-1.302;2023-02-07T10:31:39;7.07;;;3.75;;
48651;SDS011;34442;52.362;-1.302;2023-02-07T10:34:10;6.80;;;3.65;;
48651;SDS011;34442;52.362;-1.302;2023-02-07T10:36:43;6.00;;;3.75;;
48651;SDS011;34442;52.362;-1.302;2023-02-07T10:39:16;7.47;;;3.75;;
48651;SDS011;34442;52.362;-1.302;2023-02-07T10:41:43;7.28;;;3.50;;
48651;SDS011;34442;52.362;-1.302;2023-02-07T10:44:13;7.72;;;2.83;;
48651;SDS011;34442;52.362;-1.302;2023-02-07T10:46:42;10.50;;;4.68;;
48651;SDS011;34442;52.362;-1.302;2023-02-07T10:49:16;8.13;;;3.83;;
48651;SDS011;34442;52.362;-1.302;2023-02-07T10:51:44;7.80;;;4.18;;
48651;SDS011;34442;52.362;-1.302;2023-02-07T10:54:12;9.10;;;4.25;;
48651;SDS011;34442;52.362;-1.302;2023-02-07T10:56:47;7.38;;;3.70;;
48651;SDS011;34442;52.362;-1.302;2023-02-07T11:01:55;6.00;;;4.00;;
48651;SDS011;34442;52.362;-1.302;2023-02-07T11:04:21;9.77;;;5.22;;
48651;SDS011;34442;52.362;-1.302;2023-02-07T11:06:52;10.05;;;5.60;;
48651;SDS011;34442;52.362;-1.302;2023-02-07T11:09:25;6.82;;;3.80;;
48651;SDS011;34442;52.362;-1.302;2023-02-07T11:11:51;8.77;;;3.72;;
48651;SDS011;34442;52.362;-1.302;2023-02-07T11:14:19;6.13;;;3.47;;
48651;SDS011;34442;52.362;-1.302;2023-02-07T11:16:54;5.13;;;3.03;;
48651;SDS011;34442;52.362;-1.302;2023-02-07T11:19:24;6.00;;;3.17;;
48651;SDS011;34442;52.362;-1.302;2023-02-07T11:22:07;5.25;;;2.92;;
48651;SDS011;34442;52.362;-1.302;2023-02-07T11:24:35;6.27;;;3.20;;
48651;SDS011;34442;52.362;-1.302;2023-02-07T11:29:30;5.05;;;2.75;;
48651;SDS011;34442;52.362;-1.302;2023-02-07T11:32:04;5.55;;;3.08;;
48651;SDS011;34442;52.362;-1.302;2023-02-07T11:37:09;5.18;;;2.10;;
48651;SDS011;34442;52.362;-1.302;2023-02-07T11:39:49;6.22;;;2.80;;
48651;SDS011;34442;52.362;-1.302;2023-02-07T11:42:18;6.15;;;3.50;;
48651;SDS011;34442;52.362;-1.302;2023-02-07T11:44:45;10.93;;;5.03;;
48651;SDS011;34442;52.362;-1.302;2023-02-07T11:47:13;6.25;;;2.85;;
48651;SDS011;34442;52.362;-1.302;2023-02-07T11:49:45;9.45;;;5.40;;
48651;SDS011;34442;52.362;-1.302;2023-02-07T11:52:14;7.72;;;4.13;;
48651;SDS011;34442;52.362;-1.302;2023-02-07T11:54:41;10.68;;;5.38;;
48651;SDS011;34442;52.362;-1.302;2023-02-07T11:57:13;8.50;;;3.58;;
48651;SDS011;34442;52.362;-1.302;2023-02-07T11:59:49;9.27;;;5.43;;
48651;SDS011;34442;52.362;-1.302;2023-02-07T12:02:23;7.10;;;4.07;;
48651;SDS011;34442;52.362;-1.302;2023-02-07T12:04:51;10.07;;;4.13;;
48651;SDS011;34442;52.362;-1.302;2023-02-07T12:07:25;8.50;;;3.72;;
48651;SDS011;34442;52.362;-1.302;2023-02-07T12:09:58;6.20;;;3.63;;
48651;SDS011;34442;52.362;-1.302;2023-02-07T12:12:41;8.73;;;4.32;;
48651;SDS011;34442;52.362;-1.302;2023-02-07T12:20:27;5.28;;;3.00;;
48651;SDS011;34442;52.362;-1.302;2023-02-07T12:23:03;7.20;;;3.35;;
48651;SDS011;34442;52.362;-1.302;2023-02-07T12:25:36;9.32;;;3.80;;
48651;SDS011;34442;52.362;-1.302;2023-02-07T12:28:10;7.25;;;2.85;;
48651;SDS011;34442;52.362;-1.302;2023-02-07T12:30:43;5.32;;;3.00;;
48651;SDS011;34442;52.362;-1.302;2023-02-07T12:35:42;6.00;;;2.97;;
48651;SDS011;34442;52.362;-1.302;2023-02-07T12:38:23;4.85;;;2.53;;
48651;SDS011;34442;52.362;-1.302;2023-02-07T12:40:52;4.80;;;2.25;;
48651;SDS011;34442;52.362;-1.302;2023-02-07T12:43:31;4.78;;;2.38;;
48651;SDS011;34442;52.362;-1.302;2023-02-07T12:54:29;4.63;;;2.15;;
48651;SDS011;34442;52.362;-1.302;2023-02-07T13:08:08;3.80;;;1.90;;
48651;SDS011;34442;52.362;-1.302;2023-02-07T13:16:20;3.25;;;1.63;;
48651;SDS011;34442;52.362;-1.302;2023-02-07T13:22:23;4.50;;;2.25;;
48651;SDS011;34442;52.362;-1.302;2023-02-07T13:24:56;5.88;;;2.42;;
48651;SDS011;34442;52.362;-1.302;2023-02-07T13:27:22;3.00;;;1.88;;
48651;SDS011;34442;52.362;-1.302;2023-02-07T13:29:50;3.88;;;2.28;;
48651;SDS011;34442;52.362;-1.302;2023-02-07T13:32:20;3.78;;;1.92;;
48651;SDS011;34442;52.362;-1.302;2023-02-07T13:37:46;3.40;;;1.70;;
48651;SDS011;34442;52.362;-1.302;2023-02-07T13:45:55;3.65;;;1.80;;
48651;SDS011;34442;52.362;-1.302;2023-02-07T13:48:41;2.97;;;1.52;;
48651;SDS011;34442;52.362;-1.302;2023-02-07T13:54:00;2.50;;;1.48;;
48651;SDS011;34442;52.362;-1.302;2023-02-07T13:56:58;5.22;;;1.88;;
48651;SDS011;34442;52.362;-1.302;2023-02-07T14:00:03;3.50;;;1.60;;
48651;SDS011;34442;52.362;-1.302;2023-02-07T14:02:40;5.13;;;1.88;;
48651;SDS011;34442;52.362;-1.302;2023-02-07T14:05:27;3.08;;;1.60;;
48651;SDS011;34442;52.362;-1.302;2023-02-07T14:08:05;3.50;;;1.63;;
48651;SDS011;34442;52.362;-1.302;2023-02-07T14:10:50;3.25;;;1.50;;
48651;SDS011;34442;52.362;-1.302;2023-02-07T14:13:21;3.35;;;1.40;;
48651;SDS011;34442;52.362;-1.302;2023-02-07T14:21:27;3.05;;;1.60;;
48651;SDS011;34442;52.362;-1.302;2023-02-07T14:34:23;1.00;;;0.80;;
48651;SDS011;34442;52.362;-1.302;2023-02-07T14:36:52;1.20;;;0.90;;
48651;SDS011;34442;52.362;-1.302;2023-02-07T14:41:48;3.58;;;1.35;;
48651;SDS011;34442;52.362;-1.302;2023-02-07T14:44:22;3.90;;;1.55;;
48651;SDS011;34442;52.362;-1.302;2023-02-07T14:46:53;2.95;;;1.27;;
48651;SDS011;34442;52.362;-1.302;2023-02-07T14:49:30;4.30;;;1.30;;
48651;SDS011;34442;52.362;-1.302;2023-02-07T14:52:02;1.90;;;1.10;;
48651;SDS011;34442;52.362;-1.302;2023-02-07T15:00:30;1.73;;;1.02;;
48651;SDS011;34442;52.362;-1.302;2023-02-07T15:03:01;2.17;;;1.02;;
48651;SDS011;34442;52.362;-1.302;2023-02-07T15:05:37;1.88;;;1.00;;
48651;SDS011;34442;52.362;-1.302;2023-02-07T15:08:16;3.03;;;1.48;;
48651;SDS011;34442;52.362;-1.302;2023-02-07T15:10:56;2.42;;;1.30;;
48651;SDS011;34442;52.362;-1.302;2023-02-07T15:16:07;2.78;;;1.20;;
48651;SDS011;34442;52.362;-1.302;2023-02-07T15:18:45;2.50;;;1.17;;
48651;SDS011;34442;52.362;-1.302;2023-02-07T15:21:33;3.22;;;1.10;;
48651;SDS011;34442;52.362;-1.302;2023-02-07T15:24:15;1.63;;;1.08;;
48651;SDS011;34442;52.362;-1.302;2023-02-07T15:26:47;1.42;;;1.00;;
48651;SDS011;34442;52.362;-1.302;2023-02-07T15:29:21;1.58;;;1.00;;
48651;SDS011;34442;52.362;-1.302;2023-02-07T15:31:58;1.55;;;0.90;;
48651;SDS011;34442;52.362;-1.302;2023-02-07T15:34:25;1.75;;;1.10;;
48651;SDS011;34442;52.362;-1.302;2023-02-07T15:36:56;1.92;;;1.20;;
48651;SDS011;34442;52.362;-1.302;2023-02-07T15:39:37;2.28;;;0.90;;
48651;SDS011;34442;52.362;-1.302;2023-02-07T15:42:03;1.77;;;0.90;;
48651;SDS011;34442;52.362;-1.302;2023-02-07T15:44:31;2.03;;;1.10;;
48651;SDS011;34442;52.362;-1.302;2023-02-07T15:47:03;2.65;;;1.15;;
48651;SDS011;34442;52.362;-1.302;2023-02-07T15:54:50;1.83;;;1.10;;
48651;SDS011;34442;52.362;-1.302;2023-02-07T15:57:20;1.55;;;1.05;;
48651;SDS011;34442;52.362;-1.302;2023-02-07T15:59:52;1.65;;;1.20;;
48651;SDS011;34442;52.362;-1.302;2023-02-07T16:02:24;2.38;;;1.13;;
48651;SDS011;34442;52.362;-1.302;2023-02-07T16:04:55;1.88;;;1.00;;
48651;SDS011;34442;52.362;-1.302;2023-02-07T16:07:21;4.03;;;1.25;;
48651;SDS011;34442;52.362;-1.302;2023-02-07T16:09:48;2.05;;;0.90;;
48651;SDS011;34442;52.362;-1.302;2023-02-07T16:12:20;2.08;;;1.08;;
48651;SDS011;34442;52.362;-1.302;2023-02-07T16:14:46;2.83;;;1.30;;
48651;SDS011;34442;52.362;-1.302;2023-02-07T16:17:20;1.65;;;1.10;;
48651;SDS011;34442;52.362;-1.302;2023-02-07T16:19:48;1.85;;;1.00;;
48651;SDS011;34442;52.362;-1.302;2023-02-07T16:22:15;3.63;;;1.52;;
48651;SDS011;34442;52.362;-1.302;2023-02-07T16:24:44;1.75;;;1.10;;
48651;SDS011;34442;52.362;-1.302;2023-02-07T16:27:21;1.75;;;0.90;;
48651;SDS011;34442;52.362;-1.302;2023-02-07T16:29:52;1.60;;;0.95;;
48651;SDS011;34442;52.362;-1.302;2023-02-07T16:32:20;1.55;;;1.13;;
48651;SDS011;34442;52.362;-1.302;2023-02-07T16:34:46;1.75;;;0.98;;
48651;SDS011;34442;52.362;-1.302;2023-02-07T16:37:12;0.93;;;0.80;;
48651;SDS011;34442;52.362;-1.302;2023-02-07T16:39:38;1.88;;;0.90;;
48651;SDS011;34442;52.362;-1.302;2023-02-07T16:42:04;1.92;;;1.00;;
48651;SDS011;34442;52.362;-1.302;2023-02-07T16:44:34;1.58;;;0.88;;
48651;SDS011;34442;52.362;-1.302;2023-02-07T16:47:00;1.27;;;0.80;;
48651;SDS011;34442;52.362;-1.302;2023-02-07T16:49:28;2.22;;;1.10;;
48651;SDS011;34442;52.362;-1.302;2023-02-07T16:51:55;2.15;;;1.08;;
48651;SDS011;34442;52.362;-1.302;2023-02-07T16:54:21;1.27;;;0.90;;
48651;SDS011;34442;52.362;-1.302;2023-02-07T16:56:48;1.58;;;0.90;;
48651;SDS011;34442;52.362;-1.302;2023-02-07T16:59:17;2.20;;;1.00;;
48651;SDS011;34442;52.362;-1.302;2023-02-07T17:01:45;1.42;;;0.95;;
48651;SDS011;34442;52.362;-1.302;2023-02-07T17:04:11;1.80;;;0.90;;